sensor_id;sensor_type;location;lat;lon;timestamp;temperature;humidity
4697;DHT22;2362;50.780;0.292;2024-03-29T00:00:37;9.10;99.90
4697;DHT22;2362;50.780;0.292;2024-03-29T00:03:03;9.10;99.90
4697;DHT22;2362;50.780;0.292;2024-03-29T00:05:29;9.10;99.90
4697;DHT22;2362;50.780;0.292;2024-03-29T00:07:55;9.20;99.90
4697;DHT22;2362;50.780;0.292;2024-03-29T00:10:20;9.30;99.90
4697;DHT22;2362;50.780;0.292;2024-03-29T00:12:46;9.30;99.90
4697;DHT22;2362;50.780;0.292;2024-03-29T00:15:12;9.30;99.90
4697;DHT22;2362;50.780;0.292;2024-03-29T00:17:37;9.30;99.90
4697;DHT22;2362;50.780;0.292;2024-03-29T00:20:05;9.40;99.90
4697;DHT22;2362;50.780;0.292;2024-03-29T00:22:31;9.40;99.90
4697;DHT22;2362;50.780;0.292;2024-03-29T00:24:57;9.50;99.90
4697;DHT22;2362;50.780;0.292;2024-03-29T00:27:22;9.50;99.90
4697;DHT22;2362;50.780;0.292;2024-03-29T00:29:51;9.60;99.90
4697;DHT22;2362;50.780;0.292;2024-03-29T00:32:21;9.60;99.90
4697;DHT22;2362;50.780;0.292;2024-03-29T00:34:49;9.60;99.90
4697;DHT22;2362;50.780;0.292;2024-03-29T00:37:15;9.60;99.90
4697;DHT22;2362;50.780;0.292;2024-03-29T00:39:41;9.50;99.90
4697;DHT22;2362;50.780;0.292;2024-03-29T00:42:07;9.50;99.90
4697;DHT22;2362;50.780;0.292;2024-03-29T00:44:35;9.50;99.90
4697;DHT22;2362;50.780;0.292;2024-03-29T00:47:07;9.50;99.90
4697;DHT22;2362;50.780;0.292;2024-03-29T00:49:32;9.60;99.90
4697;DHT22;2362;50.780;0.292;2024-03-29T00:51:59;9.60;99.90
4697;DHT22;2362;50.780;0.292;2024-03-29T00:54:25;9.60;99.90
4697;DHT22;2362;50.780;0.292;2024-03-29T00:56:51;9.70;99.90
4697;DHT22;2362;50.780;0.292;2024-03-29T00:59:17;9.60;99.90
4697;DHT22;2362;50.780;0.292;2024-03-29T01:01:42;9.60;99.90
4697;DHT22;2362;50.780;0.292;2024-03-29T01:04:09;9.60;99.90
4697;DHT22;2362;50.780;0.292;2024-03-29T01:06:34;9.50;99.90
4697;DHT22;2362;50.780;0.292;2024-03-29T01:09:00;9.60;99.90
4697;DHT22;2362;50.780;0.292;2024-03-29T01:11:26;9.60;99.90
4697;DHT22;2362;50.780;0.292;2024-03-29T01:13:52;9.60;99.90
4697;DHT22;2362;50.780;0.292;2024-03-29T01:16:18;9.60;99.90
4697;DHT22;2362;50.780;0.292;2024-03-29T01:18:44;9.60;99.90
4697;DHT22;2362;50.780;0.292;2024-03-29T01:21:09;9.60;99.90
4697;DHT22;2362;50.780;0.292;2024-03-29T01:23:35;9.50;99.90
4697;DHT22;2362;50.780;0.292;2024-03-29T01:26:02;9.60;99.90
4697;DHT22;2362;50.780;0.292;2024-03-29T01:28:27;9.50;99.90
4697;DHT22;2362;50.780;0.292;2024-03-29T01:30:54;9.50;99.90
4697;DHT22;2362;50.780;0.292;2024-03-29T01:33:20;9.50;99.90
4697;DHT22;2362;50.780;0.292;2024-03-29T01:35:47;9.40;99.90
4697;DHT22;2362;50.780;0.292;2024-03-29T01:38:14;9.40;99.90
4697;DHT22;2362;50.780;0.292;2024-03-29T01:40:39;9.40;99.90
4697;DHT22;2362;50.780;0.292;2024-03-29T01:43:05;9.40;99.90
4697;DHT22;2362;50.780;0.292;2024-03-29T01:45:32;9.40;99.90
4697;DHT22;2362;50.780;0.292;2024-03-29T01:47:58;9.40;99.90
4697;DHT22;2362;50.780;0.292;2024-03-29T01:50:24;9.40;99.90
4697;DHT22;2362;50.780;0.292;2024-03-29T01:52:50;9.40;99.90
4697;DHT22;2362;50.780;0.292;2024-03-29T01:55:16;9.40;99.90
4697;DHT22;2362;50.780;0.292;2024-03-29T01:57:42;9.40;99.90
4697;DHT22;2362;50.780;0.292;2024-03-29T02:00:08;9.40;99.90
4697;DHT22;2362;50.780;0.292;2024-03-29T02:02:35;9.40;99.90
4697;DHT22;2362;50.780;0.292;2024-03-29T02:05:02;9.40;99.90
4697;DHT22;2362;50.780;0.292;2024-03-29T02:07:29;9.40;99.90
4697;DHT22;2362;50.780;0.292;2024-03-29T02:09:54;9.40;99.90
4697;DHT22;2362;50.780;0.292;2024-03-29T02:12:20;9.30;99.90
4697;DHT22;2362;50.780;0.292;2024-03-29T02:14:45;9.40;99.90
4697;DHT22;2362;50.780;0.292;2024-03-29T02:17:11;9.30;99.90
4697;DHT22;2362;50.780;0.292;2024-03-29T02:19:37;9.30;99.90
4697;DHT22;2362;50.780;0.292;2024-03-29T02:22:04;9.30;99.90
4697;DHT22;2362;50.780;0.292;2024-03-29T02:24:31;9.20;99.90
4697;DHT22;2362;50.780;0.292;2024-03-29T02:26:57;9.30;99.90
4697;DHT22;2362;50.780;0.292;2024-03-29T02:29:24;9.20;99.90
4697;DHT22;2362;50.780;0.292;2024-03-29T02:31:50;9.20;99.90
4697;DHT22;2362;50.780;0.292;2024-03-29T02:34:15;9.10;99.90
4697;DHT22;2362;50.780;0.292;2024-03-29T02:36:42;9.00;99.90
4697;DHT22;2362;50.780;0.292;2024-03-29T02:39:09;8.90;99.90
4697;DHT22;2362;50.780;0.292;2024-03-29T02:41:35;8.90;99.90
4697;DHT22;2362;50.780;0.292;2024-03-29T02:44:01;8.80;99.90
4697;DHT22;2362;50.780;0.292;2024-03-29T02:46:27;8.90;99.90
4697;DHT22;2362;50.780;0.292;2024-03-29T02:48:52;8.90;99.90
4697;DHT22;2362;50.780;0.292;2024-03-29T02:51:18;8.90;99.90
4697;DHT22;2362;50.780;0.292;2024-03-29T02:53:44;9.00;99.90
4697;DHT22;2362;50.780;0.292;2024-03-29T02:56:10;9.00;99.90
4697;DHT22;2362;50.780;0.292;2024-03-29T02:58:35;9.10;99.90
4697;DHT22;2362;50.780;0.292;2024-03-29T03:01:08;9.10;99.90
4697;DHT22;2362;50.780;0.292;2024-03-29T03:03:35;9.10;99.90
4697;DHT22;2362;50.780;0.292;2024-03-29T03:06:01;9.10;99.90
4697;DHT22;2362;50.780;0.292;2024-03-29T03:08:28;9.10;99.90
4697;DHT22;2362;50.780;0.292;2024-03-29T03:11:15;9.10;99.90
4697;DHT22;2362;50.780;0.292;2024-03-29T03:13:40;9.00;99.90
4697;DHT22;2362;50.780;0.292;2024-03-29T03:16:06;9.00;99.90
4697;DHT22;2362;50.780;0.292;2024-03-29T03:18:32;9.00;99.90
4697;DHT22;2362;50.780;0.292;2024-03-29T03:20:57;9.00;99.90
4697;DHT22;2362;50.780;0.292;2024-03-29T03:23:24;8.90;99.90
4697;DHT22;2362;50.780;0.292;2024-03-29T03:26:00;8.90;99.90
4697;DHT22;2362;50.780;0.292;2024-03-29T03:28:26;8.90;99.90
4697;DHT22;2362;50.780;0.292;2024-03-29T03:30:53;8.80;99.90
4697;DHT22;2362;50.780;0.292;2024-03-29T03:33:19;8.80;99.90
4697;DHT22;2362;50.780;0.292;2024-03-29T03:35:46;8.80;99.90
4697;DHT22;2362;50.780;0.292;2024-03-29T03:38:14;8.80;99.90
4697;DHT22;2362;50.780;0.292;2024-03-29T03:40:40;8.80;99.90
4697;DHT22;2362;50.780;0.292;2024-03-29T03:43:06;8.90;99.90
4697;DHT22;2362;50.780;0.292;2024-03-29T03:45:40;8.90;99.90
4697;DHT22;2362;50.780;0.292;2024-03-29T03:48:10;9.00;99.90
4697;DHT22;2362;50.780;0.292;2024-03-29T03:50:36;9.00;99.90
4697;DHT22;2362;50.780;0.292;2024-03-29T03:53:02;9.00;99.90
4697;DHT22;2362;50.780;0.292;2024-03-29T03:55:28;9.00;99.90
4697;DHT22;2362;50.780;0.292;2024-03-29T03:57:54;9.00;99.90
4697;DHT22;2362;50.780;0.292;2024-03-29T04:00:21;9.00;99.90
4697;DHT22;2362;50.780;0.292;2024-03-29T04:02:50;9.00;99.90
4697;DHT22;2362;50.780;0.292;2024-03-29T04:05:17;9.10;99.90
4697;DHT22;2362;50.780;0.292;2024-03-29T04:07:43;9.10;99.90
4697;DHT22;2362;50.780;0.292;2024-03-29T04:10:08;9.10;99.90
4697;DHT22;2362;50.780;0.292;2024-03-29T04:12:34;9.00;99.90
4697;DHT22;2362;50.780;0.292;2024-03-29T04:15:00;9.00;99.90
4697;DHT22;2362;50.780;0.292;2024-03-29T04:17:25;9.00;99.90
4697;DHT22;2362;50.780;0.292;2024-03-29T04:19:51;9.00;99.90
4697;DHT22;2362;50.780;0.292;2024-03-29T04:22:16;8.90;99.90
4697;DHT22;2362;50.780;0.292;2024-03-29T04:24:42;8.90;99.90
4697;DHT22;2362;50.780;0.292;2024-03-29T04:27:08;8.90;99.90
4697;DHT22;2362;50.780;0.292;2024-03-29T04:29:33;8.90;99.90
4697;DHT22;2362;50.780;0.292;2024-03-29T04:31:59;8.90;99.90
4697;DHT22;2362;50.780;0.292;2024-03-29T04:34:24;8.90;99.90
4697;DHT22;2362;50.780;0.292;2024-03-29T04:36:50;8.90;99.90
4697;DHT22;2362;50.780;0.292;2024-03-29T04:39:16;8.80;99.90
4697;DHT22;2362;50.780;0.292;2024-03-29T04:41:41;8.90;99.90
4697;DHT22;2362;50.780;0.292;2024-03-29T04:44:07;8.80;99.90
4697;DHT22;2362;50.780;0.292;2024-03-29T04:46:35;8.80;99.90
4697;DHT22;2362;50.780;0.292;2024-03-29T04:49:01;8.80;99.90
4697;DHT22;2362;50.780;0.292;2024-03-29T04:51:26;8.80;99.90
4697;DHT22;2362;50.780;0.292;2024-03-29T04:53:52;8.80;99.90
4697;DHT22;2362;50.780;0.292;2024-03-29T04:56:18;8.70;99.90
4697;DHT22;2362;50.780;0.292;2024-03-29T04:58:43;8.60;99.90
4697;DHT22;2362;50.780;0.292;2024-03-29T05:01:11;8.50;99.90
4697;DHT22;2362;50.780;0.292;2024-03-29T05:03:37;8.50;99.90
4697;DHT22;2362;50.780;0.292;2024-03-29T05:06:02;8.50;99.90
4697;DHT22;2362;50.780;0.292;2024-03-29T05:08:28;8.40;99.90
4697;DHT22;2362;50.780;0.292;2024-03-29T05:10:53;8.40;99.90
4697;DHT22;2362;50.780;0.292;2024-03-29T05:13:19;8.40;99.90
4697;DHT22;2362;50.780;0.292;2024-03-29T05:15:46;8.40;99.90
4697;DHT22;2362;50.780;0.292;2024-03-29T05:18:12;8.30;99.90
4697;DHT22;2362;50.780;0.292;2024-03-29T05:20:38;8.30;99.90
4697;DHT22;2362;50.780;0.292;2024-03-29T05:23:06;8.30;99.90
4697;DHT22;2362;50.780;0.292;2024-03-29T05:25:32;8.30;99.90
4697;DHT22;2362;50.780;0.292;2024-03-29T05:27:58;8.20;99.90
4697;DHT22;2362;50.780;0.292;2024-03-29T05:30:24;8.20;99.90
4697;DHT22;2362;50.780;0.292;2024-03-29T05:32:50;8.30;99.90
4697;DHT22;2362;50.780;0.292;2024-03-29T05:35:15;8.20;99.90
4697;DHT22;2362;50.780;0.292;2024-03-29T05:37:41;8.20;99.90
4697;DHT22;2362;50.780;0.292;2024-03-29T05:40:08;8.20;99.90
4697;DHT22;2362;50.780;0.292;2024-03-29T05:42:34;8.30;99.90
4697;DHT22;2362;50.780;0.292;2024-03-29T05:45:26;8.30;99.90
4697;DHT22;2362;50.780;0.292;2024-03-29T05:47:55;8.20;99.90
4697;DHT22;2362;50.780;0.292;2024-03-29T05:50:22;8.20;99.90
4697;DHT22;2362;50.780;0.292;2024-03-29T05:52:49;8.30;99.90
4697;DHT22;2362;50.780;0.292;2024-03-29T05:55:14;8.30;99.90
4697;DHT22;2362;50.780;0.292;2024-03-29T05:57:40;8.40;99.90
4697;DHT22;2362;50.780;0.292;2024-03-29T06:00:11;8.40;99.90
4697;DHT22;2362;50.780;0.292;2024-03-29T06:02:38;8.40;99.90
4697;DHT22;2362;50.780;0.292;2024-03-29T06:05:03;8.40;99.90
4697;DHT22;2362;50.780;0.292;2024-03-29T06:07:30;8.40;99.90
4697;DHT22;2362;50.780;0.292;2024-03-29T06:09:58;8.40;99.90
4697;DHT22;2362;50.780;0.292;2024-03-29T06:12:25;8.40;99.90
4697;DHT22;2362;50.780;0.292;2024-03-29T06:14:51;8.50;99.90
4697;DHT22;2362;50.780;0.292;2024-03-29T06:17:35;8.50;99.90
4697;DHT22;2362;50.780;0.292;2024-03-29T06:20:03;8.60;99.90
4697;DHT22;2362;50.780;0.292;2024-03-29T06:22:29;8.60;99.90
4697;DHT22;2362;50.780;0.292;2024-03-29T06:24:58;8.60;99.90
4697;DHT22;2362;50.780;0.292;2024-03-29T06:27:25;8.60;99.90
4697;DHT22;2362;50.780;0.292;2024-03-29T06:29:51;8.60;99.90
4697;DHT22;2362;50.780;0.292;2024-03-29T06:32:17;8.60;99.90
4697;DHT22;2362;50.780;0.292;2024-03-29T06:34:44;8.60;99.90
4697;DHT22;2362;50.780;0.292;2024-03-29T06:37:10;8.70;99.90
4697;DHT22;2362;50.780;0.292;2024-03-29T06:39:36;8.70;99.90
4697;DHT22;2362;50.780;0.292;2024-03-29T06:42:02;8.70;99.90
4697;DHT22;2362;50.780;0.292;2024-03-29T06:44:27;8.70;99.90
4697;DHT22;2362;50.780;0.292;2024-03-29T06:46:53;8.80;99.90
4697;DHT22;2362;50.780;0.292;2024-03-29T06:49:19;8.80;99.90
4697;DHT22;2362;50.780;0.292;2024-03-29T06:52:10;8.90;99.90
4697;DHT22;2362;50.780;0.292;2024-03-29T06:54:38;9.00;99.90
4697;DHT22;2362;50.780;0.292;2024-03-29T06:57:04;9.10;99.90
4697;DHT22;2362;50.780;0.292;2024-03-29T06:59:29;9.20;99.90
4697;DHT22;2362;50.780;0.292;2024-03-29T07:01:55;9.30;99.90
4697;DHT22;2362;50.780;0.292;2024-03-29T07:04:22;9.50;99.90
4697;DHT22;2362;50.780;0.292;2024-03-29T07:06:47;9.90;99.90
4697;DHT22;2362;50.780;0.292;2024-03-29T07:09:16;10.30;99.90
4697;DHT22;2362;50.780;0.292;2024-03-29T07:11:42;10.40;99.90
4697;DHT22;2362;50.780;0.292;2024-03-29T07:14:08;10.60;99.90
4697;DHT22;2362;50.780;0.292;2024-03-29T07:16:33;10.60;99.90
4697;DHT22;2362;50.780;0.292;2024-03-29T07:18:59;10.80;99.90
4697;DHT22;2362;50.780;0.292;2024-03-29T07:21:25;10.90;99.90
4697;DHT22;2362;50.780;0.292;2024-03-29T07:23:50;11.00;99.90
4697;DHT22;2362;50.780;0.292;2024-03-29T07:26:16;11.10;99.90
4697;DHT22;2362;50.780;0.292;2024-03-29T07:28:42;11.30;99.90
4697;DHT22;2362;50.780;0.292;2024-03-29T07:31:08;11.50;99.90
4697;DHT22;2362;50.780;0.292;2024-03-29T07:33:34;11.70;99.90
4697;DHT22;2362;50.780;0.292;2024-03-29T07:36:00;11.70;99.90
4697;DHT22;2362;50.780;0.292;2024-03-29T07:38:26;11.40;99.90
4697;DHT22;2362;50.780;0.292;2024-03-29T07:40:52;11.10;99.90
4697;DHT22;2362;50.780;0.292;2024-03-29T07:43:21;10.80;99.90
4697;DHT22;2362;50.780;0.292;2024-03-29T07:45:47;10.50;99.90
4697;DHT22;2362;50.780;0.292;2024-03-29T07:48:15;10.40;99.90
4697;DHT22;2362;50.780;0.292;2024-03-29T07:50:42;10.40;99.90
4697;DHT22;2362;50.780;0.292;2024-03-29T07:53:08;10.60;99.90
4697;DHT22;2362;50.780;0.292;2024-03-29T07:55:35;11.00;99.90
4697;DHT22;2362;50.780;0.292;2024-03-29T07:58:01;11.30;99.90
4697;DHT22;2362;50.780;0.292;2024-03-29T08:00:27;11.30;99.90
4697;DHT22;2362;50.780;0.292;2024-03-29T08:02:53;11.10;99.90
4697;DHT22;2362;50.780;0.292;2024-03-29T08:05:20;11.00;99.90
4697;DHT22;2362;50.780;0.292;2024-03-29T08:07:46;11.20;99.90
4697;DHT22;2362;50.780;0.292;2024-03-29T08:10:12;11.30;99.90
4697;DHT22;2362;50.780;0.292;2024-03-29T08:12:37;11.60;99.90
4697;DHT22;2362;50.780;0.292;2024-03-29T08:15:04;11.90;99.90
4697;DHT22;2362;50.780;0.292;2024-03-29T08:17:30;12.30;99.90
4697;DHT22;2362;50.780;0.292;2024-03-29T08:19:55;12.30;99.90
4697;DHT22;2362;50.780;0.292;2024-03-29T08:22:21;12.00;99.90
4697;DHT22;2362;50.780;0.292;2024-03-29T08:24:47;11.90;99.90
4697;DHT22;2362;50.780;0.292;2024-03-29T08:27:12;11.70;99.90
4697;DHT22;2362;50.780;0.292;2024-03-29T08:30:03;11.40;99.90
4697;DHT22;2362;50.780;0.292;2024-03-29T08:32:53;11.20;99.90
4697;DHT22;2362;50.780;0.292;2024-03-29T08:35:45;11.00;99.90
4697;DHT22;2362;50.780;0.292;2024-03-29T08:38:35;11.10;99.90
4697;DHT22;2362;50.780;0.292;2024-03-29T08:41:02;11.60;99.90
4697;DHT22;2362;50.780;0.292;2024-03-29T08:43:27;11.90;99.90
4697;DHT22;2362;50.780;0.292;2024-03-29T08:45:53;12.10;99.90
4697;DHT22;2362;50.780;0.292;2024-03-29T08:48:19;12.10;99.90
4697;DHT22;2362;50.780;0.292;2024-03-29T08:50:44;11.90;99.90
4697;DHT22;2362;50.780;0.292;2024-03-29T08:53:11;11.90;99.90
4697;DHT22;2362;50.780;0.292;2024-03-29T08:55:37;11.80;99.90
4697;DHT22;2362;50.780;0.292;2024-03-29T08:58:04;11.70;99.90
4697;DHT22;2362;50.780;0.292;2024-03-29T09:00:30;11.60;99.90
4697;DHT22;2362;50.780;0.292;2024-03-29T09:02:56;11.50;99.90
4697;DHT22;2362;50.780;0.292;2024-03-29T09:05:22;11.50;99.90
4697;DHT22;2362;50.780;0.292;2024-03-29T09:07:51;11.40;99.90
4697;DHT22;2362;50.780;0.292;2024-03-29T09:10:17;11.30;99.90
4697;DHT22;2362;50.780;0.292;2024-03-29T09:12:43;11.30;99.90
4697;DHT22;2362;50.780;0.292;2024-03-29T09:15:08;11.20;99.90
4697;DHT22;2362;50.780;0.292;2024-03-29T09:17:42;11.20;99.90
4697;DHT22;2362;50.780;0.292;2024-03-29T09:20:08;11.20;99.90
4697;DHT22;2362;50.780;0.292;2024-03-29T09:22:34;11.30;99.90
4697;DHT22;2362;50.780;0.292;2024-03-29T09:25:00;11.50;99.90
4697;DHT22;2362;50.780;0.292;2024-03-29T09:27:27;11.60;99.90
4697;DHT22;2362;50.780;0.292;2024-03-29T09:29:54;11.60;99.90
4697;DHT22;2362;50.780;0.292;2024-03-29T09:32:20;11.60;99.90
4697;DHT22;2362;50.780;0.292;2024-03-29T09:34:47;11.60;99.90
4697;DHT22;2362;50.780;0.292;2024-03-29T09:37:13;11.70;99.90
4697;DHT22;2362;50.780;0.292;2024-03-29T09:39:38;11.80;99.90
4697;DHT22;2362;50.780;0.292;2024-03-29T09:42:06;11.90;99.90
4697;DHT22;2362;50.780;0.292;2024-03-29T09:44:34;11.90;99.90
4697;DHT22;2362;50.780;0.292;2024-03-29T09:47:03;11.80;99.90
4697;DHT22;2362;50.780;0.292;2024-03-29T09:49:30;11.80;99.90
4697;DHT22;2362;50.780;0.292;2024-03-29T09:51:57;11.90;99.90
4697;DHT22;2362;50.780;0.292;2024-03-29T09:54:24;12.00;99.90
4697;DHT22;2362;50.780;0.292;2024-03-29T09:56:50;12.00;99.90
4697;DHT22;2362;50.780;0.292;2024-03-29T09:59:15;11.90;99.90
4697;DHT22;2362;50.780;0.292;2024-03-29T10:01:41;11.90;99.90
4697;DHT22;2362;50.780;0.292;2024-03-29T10:04:07;11.80;99.90
4697;DHT22;2362;50.780;0.292;2024-03-29T10:06:34;11.80;99.90
4697;DHT22;2362;50.780;0.292;2024-03-29T10:09:01;11.70;99.90
4697;DHT22;2362;50.780;0.292;2024-03-29T10:11:27;11.70;99.90
4697;DHT22;2362;50.780;0.292;2024-03-29T10:13:52;11.90;99.90
4697;DHT22;2362;50.780;0.292;2024-03-29T10:16:19;12.00;99.90
4697;DHT22;2362;50.780;0.292;2024-03-29T10:18:48;12.00;99.90
4697;DHT22;2362;50.780;0.292;2024-03-29T10:21:13;12.00;99.90
4697;DHT22;2362;50.780;0.292;2024-03-29T10:23:40;12.00;99.90
4697;DHT22;2362;50.780;0.292;2024-03-29T10:26:06;12.00;99.90
4697;DHT22;2362;50.780;0.292;2024-03-29T10:28:34;12.00;99.90
4697;DHT22;2362;50.780;0.292;2024-03-29T10:31:05;12.00;99.90
4697;DHT22;2362;50.780;0.292;2024-03-29T10:33:31;12.00;99.90
4697;DHT22;2362;50.780;0.292;2024-03-29T10:35:59;12.00;99.90
4697;DHT22;2362;50.780;0.292;2024-03-29T10:38:26;12.10;99.90
4697;DHT22;2362;50.780;0.292;2024-03-29T10:40:52;12.10;99.90
4697;DHT22;2362;50.780;0.292;2024-03-29T10:43:19;12.20;99.90
4697;DHT22;2362;50.780;0.292;2024-03-29T10:45:48;12.30;99.90
4697;DHT22;2362;50.780;0.292;2024-03-29T10:48:17;12.30;99.90
4697;DHT22;2362;50.780;0.292;2024-03-29T10:50:47;12.30;99.90
4697;DHT22;2362;50.780;0.292;2024-03-29T10:53:13;12.30;99.90
4697;DHT22;2362;50.780;0.292;2024-03-29T10:55:42;12.40;99.90
4697;DHT22;2362;50.780;0.292;2024-03-29T10:58:10;12.40;99.90
4697;DHT22;2362;50.780;0.292;2024-03-29T11:00:48;12.50;99.90
4697;DHT22;2362;50.780;0.292;2024-03-29T11:03:37;12.60;99.90
4697;DHT22;2362;50.780;0.292;2024-03-29T11:06:04;12.60;99.90
4697;DHT22;2362;50.780;0.292;2024-03-29T11:08:33;12.60;99.90
4697;DHT22;2362;50.780;0.292;2024-03-29T11:11:02;12.60;99.90
4697;DHT22;2362;50.780;0.292;2024-03-29T11:16:01;12.70;99.90
4697;DHT22;2362;50.780;0.292;2024-03-29T11:18:28;12.70;99.90
4697;DHT22;2362;50.780;0.292;2024-03-29T11:20:54;12.70;99.90
4697;DHT22;2362;50.780;0.292;2024-03-29T11:23:21;12.80;99.90
4697;DHT22;2362;50.780;0.292;2024-03-29T11:25:52;12.80;99.90
4697;DHT22;2362;50.780;0.292;2024-03-29T11:28:31;12.80;99.90
4697;DHT22;2362;50.780;0.292;2024-03-29T11:31:06;12.80;99.90
4697;DHT22;2362;50.780;0.292;2024-03-29T11:36:23;12.90;99.90
4697;DHT22;2362;50.780;0.292;2024-03-29T11:38:51;12.90;99.90
4697;DHT22;2362;50.780;0.292;2024-03-29T11:41:18;12.90;99.90
4697;DHT22;2362;50.780;0.292;2024-03-29T11:43:45;12.90;99.90
4697;DHT22;2362;50.780;0.292;2024-03-29T11:46:13;12.90;99.90
4697;DHT22;2362;50.780;0.292;2024-03-29T11:48:40;13.00;99.90
4697;DHT22;2362;50.780;0.292;2024-03-29T11:51:08;13.00;99.90
4697;DHT22;2362;50.780;0.292;2024-03-29T11:53:35;13.10;99.90
4697;DHT22;2362;50.780;0.292;2024-03-29T11:56:02;13.10;99.90
4697;DHT22;2362;50.780;0.292;2024-03-29T11:58:29;13.10;99.90
4697;DHT22;2362;50.780;0.292;2024-03-29T12:00:57;13.20;99.90
4697;DHT22;2362;50.780;0.292;2024-03-29T12:03:25;13.30;99.90
4697;DHT22;2362;50.780;0.292;2024-03-29T12:05:51;13.30;99.90
4697;DHT22;2362;50.780;0.292;2024-03-29T12:08:20;13.20;99.90
4697;DHT22;2362;50.780;0.292;2024-03-29T12:10:46;13.30;99.90
4697;DHT22;2362;50.780;0.292;2024-03-29T12:13:15;13.30;99.90
4697;DHT22;2362;50.780;0.292;2024-03-29T12:15:41;13.40;99.90
4697;DHT22;2362;50.780;0.292;2024-03-29T12:18:06;13.40;99.90
4697;DHT22;2362;50.780;0.292;2024-03-29T12:20:33;13.50;99.90
4697;DHT22;2362;50.780;0.292;2024-03-29T12:23:03;13.50;99.90
4697;DHT22;2362;50.780;0.292;2024-03-29T12:25:30;13.40;99.90
4697;DHT22;2362;50.780;0.292;2024-03-29T12:27:57;13.40;99.90
4697;DHT22;2362;50.780;0.292;2024-03-29T12:30:22;13.30;99.90
4697;DHT22;2362;50.780;0.292;2024-03-29T12:32:48;13.30;99.90
4697;DHT22;2362;50.780;0.292;2024-03-29T12:35:27;13.30;99.90
4697;DHT22;2362;50.780;0.292;2024-03-29T12:37:52;13.50;99.90
4697;DHT22;2362;50.780;0.292;2024-03-29T12:40:19;13.60;99.90
4697;DHT22;2362;50.780;0.292;2024-03-29T12:42:52;13.70;99.90
4697;DHT22;2362;50.780;0.292;2024-03-29T12:45:18;13.70;99.90
4697;DHT22;2362;50.780;0.292;2024-03-29T12:47:48;13.90;99.90
4697;DHT22;2362;50.780;0.292;2024-03-29T12:52:55;13.90;99.90
4697;DHT22;2362;50.780;0.292;2024-03-29T12:55:21;13.90;99.90
4697;DHT22;2362;50.780;0.292;2024-03-29T12:57:48;14.00;99.90
4697;DHT22;2362;50.780;0.292;2024-03-29T13:00:14;14.10;99.90
4697;DHT22;2362;50.780;0.292;2024-03-29T13:02:40;14.20;99.90
4697;DHT22;2362;50.780;0.292;2024-03-29T13:05:06;14.00;99.90
4697;DHT22;2362;50.780;0.292;2024-03-29T13:07:33;14.00;99.90
4697;DHT22;2362;50.780;0.292;2024-03-29T13:10:03;14.00;99.90
4697;DHT22;2362;50.780;0.292;2024-03-29T13:12:36;14.00;99.90
4697;DHT22;2362;50.780;0.292;2024-03-29T13:15:15;14.10;99.90
4697;DHT22;2362;50.780;0.292;2024-03-29T13:17:41;14.10;99.90
4697;DHT22;2362;50.780;0.292;2024-03-29T13:20:07;14.00;99.90
4697;DHT22;2362;50.780;0.292;2024-03-29T13:22:34;14.10;99.90
4697;DHT22;2362;50.780;0.292;2024-03-29T13:24:59;14.10;99.90
4697;DHT22;2362;50.780;0.292;2024-03-29T13:27:52;14.00;99.90
4697;DHT22;2362;50.780;0.292;2024-03-29T13:30:25;14.00;99.90
4697;DHT22;2362;50.780;0.292;2024-03-29T13:32:52;13.90;99.90
4697;DHT22;2362;50.780;0.292;2024-03-29T13:35:18;13.80;99.90
4697;DHT22;2362;50.780;0.292;2024-03-29T13:37:50;13.80;99.90
4697;DHT22;2362;50.780;0.292;2024-03-29T13:40:19;13.80;99.90
4697;DHT22;2362;50.780;0.292;2024-03-29T13:42:45;13.90;99.90
4697;DHT22;2362;50.780;0.292;2024-03-29T13:45:11;13.90;99.90
4697;DHT22;2362;50.780;0.292;2024-03-29T13:47:38;13.90;99.90
4697;DHT22;2362;50.780;0.292;2024-03-29T13:50:07;13.70;99.90
4697;DHT22;2362;50.780;0.292;2024-03-29T13:52:36;13.60;99.90
4697;DHT22;2362;50.780;0.292;2024-03-29T13:55:03;13.50;99.90
4697;DHT22;2362;50.780;0.292;2024-03-29T13:57:29;13.50;99.90
4697;DHT22;2362;50.780;0.292;2024-03-29T13:59:54;13.50;99.90
4697;DHT22;2362;50.780;0.292;2024-03-29T14:02:20;13.50;99.90
4697;DHT22;2362;50.780;0.292;2024-03-29T14:04:48;13.40;99.90
4697;DHT22;2362;50.780;0.292;2024-03-29T14:07:15;13.40;99.90
4697;DHT22;2362;50.780;0.292;2024-03-29T14:09:44;13.40;99.90
4697;DHT22;2362;50.780;0.292;2024-03-29T14:12:10;13.40;99.90
4697;DHT22;2362;50.780;0.292;2024-03-29T14:14:36;13.40;99.90
4697;DHT22;2362;50.780;0.292;2024-03-29T14:17:02;13.40;99.90
4697;DHT22;2362;50.780;0.292;2024-03-29T14:19:37;13.40;99.90
4697;DHT22;2362;50.780;0.292;2024-03-29T14:22:03;13.40;99.90
4697;DHT22;2362;50.780;0.292;2024-03-29T14:24:31;13.40;99.90
4697;DHT22;2362;50.780;0.292;2024-03-29T14:27:03;13.30;99.90
4697;DHT22;2362;50.780;0.292;2024-03-29T14:29:32;13.30;99.90
4697;DHT22;2362;50.780;0.292;2024-03-29T14:31:58;13.30;99.90
4697;DHT22;2362;50.780;0.292;2024-03-29T14:34:49;13.30;99.90
4697;DHT22;2362;50.780;0.292;2024-03-29T14:37:17;13.30;99.90
4697;DHT22;2362;50.780;0.292;2024-03-29T14:39:43;13.30;99.90
4697;DHT22;2362;50.780;0.292;2024-03-29T14:42:10;13.40;99.90
4697;DHT22;2362;50.780;0.292;2024-03-29T14:44:38;13.40;99.90
4697;DHT22;2362;50.780;0.292;2024-03-29T14:47:03;13.50;99.90
4697;DHT22;2362;50.780;0.292;2024-03-29T14:49:31;13.50;99.60
4697;DHT22;2362;50.780;0.292;2024-03-29T14:51:57;13.40;99.90
4697;DHT22;2362;50.780;0.292;2024-03-29T14:54:22;13.40;99.90
4697;DHT22;2362;50.780;0.292;2024-03-29T14:56:49;13.40;99.90
4697;DHT22;2362;50.780;0.292;2024-03-29T14:59:15;13.40;99.90
4697;DHT22;2362;50.780;0.292;2024-03-29T15:01:41;13.50;99.70
4697;DHT22;2362;50.780;0.292;2024-03-29T15:04:09;13.40;99.00
4697;DHT22;2362;50.780;0.292;2024-03-29T15:06:36;13.40;98.40
4697;DHT22;2362;50.780;0.292;2024-03-29T15:09:01;13.50;98.10
4697;DHT22;2362;50.780;0.292;2024-03-29T15:11:35;13.50;98.00
4697;DHT22;2362;50.780;0.292;2024-03-29T15:14:03;13.50;97.90
4697;DHT22;2362;50.780;0.292;2024-03-29T15:16:29;13.50;97.90
4697;DHT22;2362;50.780;0.292;2024-03-29T15:18:56;13.40;98.20
4697;DHT22;2362;50.780;0.292;2024-03-29T15:21:22;13.50;98.40
4697;DHT22;2362;50.780;0.292;2024-03-29T15:23:48;13.60;98.30
4697;DHT22;2362;50.780;0.292;2024-03-29T15:26:15;13.60;98.80
4697;DHT22;2362;50.780;0.292;2024-03-29T15:28:41;13.80;98.90
4697;DHT22;2362;50.780;0.292;2024-03-29T15:31:27;13.70;99.00
4697;DHT22;2362;50.780;0.292;2024-03-29T15:33:53;13.80;98.40
4697;DHT22;2362;50.780;0.292;2024-03-29T15:36:19;13.60;97.90
4697;DHT22;2362;50.780;0.292;2024-03-29T15:38:48;13.60;98.60
4697;DHT22;2362;50.780;0.292;2024-03-29T15:41:17;13.60;99.20
4697;DHT22;2362;50.780;0.292;2024-03-29T15:43:43;13.60;98.60
4697;DHT22;2362;50.780;0.292;2024-03-29T15:46:09;13.50;98.90
4697;DHT22;2362;50.780;0.292;2024-03-29T15:48:37;13.50;98.80
4697;DHT22;2362;50.780;0.292;2024-03-29T15:51:06;13.50;99.10
4697;DHT22;2362;50.780;0.292;2024-03-29T15:53:36;13.40;98.50
4697;DHT22;2362;50.780;0.292;2024-03-29T15:56:03;13.40;98.40
4697;DHT22;2362;50.780;0.292;2024-03-29T15:58:29;13.40;98.30
4697;DHT22;2362;50.780;0.292;2024-03-29T16:00:55;13.30;98.00
4697;DHT22;2362;50.780;0.292;2024-03-29T16:03:22;13.30;98.30
4697;DHT22;2362;50.780;0.292;2024-03-29T16:05:54;13.30;98.20
4697;DHT22;2362;50.780;0.292;2024-03-29T16:08:20;13.30;98.40
4697;DHT22;2362;50.780;0.292;2024-03-29T16:11:00;13.30;98.60
4697;DHT22;2362;50.780;0.292;2024-03-29T16:13:31;13.30;99.60
4697;DHT22;2362;50.780;0.292;2024-03-29T16:15:59;13.40;99.90
4697;DHT22;2362;50.780;0.292;2024-03-29T16:18:26;13.30;99.90